CDT,Max TemperatureF,Mean TemperatureF,Min TemperatureF,Max Dew PointF,MeanDew PointF,Min DewpointF,Max Humidity, Mean Humidity, Min Humidity, Max Sea Level PressureIn, Mean Sea Level PressureIn, Min Sea Level PressureIn, Max VisibilityMiles, Mean VisibilityMiles, Min VisibilityMiles, Max Wind SpeedMPH, Mean Wind SpeedMPH, Max Gust SpeedMPH,PrecipitationIn, CloudCover, Events, WindDirDegrees
2013-10-1,81,72,62,70,65,60,97,81,64,30.09,30.05,30.01,10,10,5,14,4,17,0.00,6,,205
2013-10-2,78,74,69,72,69,68,100,88,76,30.13,30.08,30.05,10,6,1,12,3,15,0.26,6,Rain-Thunderstorm,109
2013-10-3,85,76,66,68,65,62,97,73,48,30.09,30.04,29.99,10,7,2,13,4,17,T,2,Rain,172
2013-10-4,85,74,63,70,66,62,100,81,61,30.09,30.05,30.00,10,7,2,12,4,15,0.01,2,Rain,159
2013-10-5,87,77,67,71,68,66,93,77,53,30.04,29.98,29.87,10,9,5,16,6,21,0.00,3,Thunderstorm,182
2013-10-6,74,62,50,67,59,46,100,89,77,29.96,29.88,29.84,10,7,0,15,6,20,1.27,7,Fog-Rain-Thunderstorm,271
2013-10-7,67,56,44,49,46,43,100,73,45,30.14,30.02,29.95,10,7,1,15,5,24,0.00,1,,360
2013-10-8,72,59,46,47,45,40,93,62,31,30.20,30.15,30.11,10,10,10,20,7,24,0.00,0,,54
2013-10-9,78,64,50,60,55,47,97,73,48,30.18,30.13,30.10,10,10,6,7,1,12,0.00,1,,149
2013-10-10,80,68,56,61,58,55,100,73,45,30.17,30.11,30.04,10,6,0,8,1,10,0.00,5,Fog,78
2013-10-11,80,67,53,59,55,52,100,73,45,30.10,30.05,30.00,10,4,0,9,1,13,0.00,0,Fog,122
2013-10-12,79,66,53,63,57,52,100,77,54,30.13,30.06,30.02,10,5,0,12,2,15,0.00,1,Fog,153
2013-10-13,80,69,57,64,60,47,93,72,50,30.28,30.22,30.14,10,8,2,15,7,20,0.00,4,,358
2013-10-14,80,65,50,60,54,46,89,70,42,30.27,30.19,30.11,10,9,5,10,4,14,0.00,0,,61
2013-10-15,74,67,60,64,61,58,97,82,64,30.10,30.03,29.96,10,9,3,18,7,23,T,3,Rain,166
2013-10-16,67,62,56,64,58,54,100,92,86,30.02,29.98,29.94,10,8,2,15,5,20,0.29,8,Rain,314
2013-10-17,64,55,45,55,48,44,100,80,60,30.02,29.99,29.94,10,7,0,15,4,20,0.06,4,Fog-Rain,327
2013-10-18,68,54,40,52,45,39,100,73,45,30.09,30.03,29.96,10,5,0,10,1,14,0.00,2,Fog,196
2013-10-19,54,45,36,52,45,37,93,78,63,30.09,29.99,29.89,10,8,0,24,5,28,0.08,6,Fog-Rain,284
2013-10-20,63,49,35,44,40,34,100,72,43,30.12,30.06,30.02,10,7,0,12,3,15,0.00,0,Fog,206
2013-10-21,69,53,37,51,41,36,100,70,39,30.07,30.03,29.97,10,5,0,14,5,18,0.03,1,Fog-Rain,201
2013-10-22,61,53,44,49,42,36,89,66,42,30.07,29.99,29.87,10,10,7,16,5,22,0.02,5,Rain,349
2013-10-23,52,46,39,45,36,32,92,71,50,30.13,30.04,29.88,10,10,8,23,8,29,0.00,6,,310
2013-10-24,52,41,30,41,35,28,89,70,50,30.39,30.23,30.12,10,10,8,20,5,24,0.00,5,,337
2013-10-25,51,39,27,30,26,22,92,63,33,30.53,30.44,30.34,10,10,9,10,2,16,0.00,0,,342
2013-10-26,57,42,28,42,32,26,100,76,45,30.32,30.21,30.07,10,7,0,15,2,22,0.00,3,Fog,214
2013-10-27,65,52,39,54,47,39,96,76,56,30.12,30.08,30.05,10,9,2,9,2,16,0.00,6,,200
2013-10-28,68,59,49,57,55,49,100,82,63,30.26,30.17,30.07,10,4,0,8,2,10,0.05,6,Fog-Rain,81
2013-10-29,67,58,49,59,54,48,100,87,73,30.30,30.23,30.14,10,5,0,10,4,13,T,5,Fog,122
2013-10-30,78,70,62,62,59,55,90,74,57,30.18,30.11,30.02,10,10,8,20,8,24,T,3,,184
2013-10-31,71,65,58,66,62,55,93,81,68,30.00,29.69,29.53,10,7,1,29,15,40,2.44,7,Rain,196